sensor_id;sensor_type;location;lat;lon;timestamp;P1;durP1;ratioP1;P2;durP2;ratioP2
4144;SDS011;2086;51.050;6.982;2022-08-24T00:00:27;6.63;;;3.00;;
4144;SDS011;2086;51.050;6.982;2022-08-24T00:02:52;1.90;;;1.80;;
4144;SDS011;2086;51.050;6.982;2022-08-24T00:05:19;3.80;;;2.33;;
4144;SDS011;2086;51.050;6.982;2022-08-24T00:07:48;9.10;;;2.77;;
4144;SDS011;2086;51.050;6.982;2022-08-24T00:10:13;3.87;;;1.97;;
4144;SDS011;2086;51.050;6.982;2022-08-24T00:12:39;5.73;;;2.80;;
4144;SDS011;2086;51.050;6.982;2022-08-24T00:15:05;2.10;;;2.00;;
4144;SDS011;2086;51.050;6.982;2022-08-24T00:17:30;2.10;;;1.50;;
4144;SDS011;2086;51.050;6.982;2022-08-24T00:19:55;2.57;;;2.40;;
4144;SDS011;2086;51.050;6.982;2022-08-24T00:22:21;1.73;;;1.63;;
4144;SDS011;2086;51.050;6.982;2022-08-24T00:24:46;2.60;;;2.43;;
4144;SDS011;2086;51.050;6.982;2022-08-24T00:27:11;7.33;;;2.13;;
4144;SDS011;2086;51.050;6.982;2022-08-24T00:29:37;2.93;;;2.40;;
4144;SDS011;2086;51.050;6.982;2022-08-24T00:32:02;2.80;;;2.20;;
4144;SDS011;2086;51.050;6.982;2022-08-24T00:34:28;2.73;;;2.53;;
4144;SDS011;2086;51.050;6.982;2022-08-24T00:36:54;1.90;;;1.80;;
4144;SDS011;2086;51.050;6.982;2022-08-24T00:39:19;4.13;;;1.90;;
4144;SDS011;2086;51.050;6.982;2022-08-24T00:41:46;2.30;;;2.10;;
4144;SDS011;2086;51.050;6.982;2022-08-24T00:44:11;1.73;;;1.63;;
4144;SDS011;2086;51.050;6.982;2022-08-24T00:46:51;1.20;;;1.10;;
4144;SDS011;2086;51.050;6.982;2022-08-24T00:51:45;1.70;;;1.60;;
4144;SDS011;2086;51.050;6.982;2022-08-24T00:54:14;1.97;;;1.87;;
4144;SDS011;2086;51.050;6.982;2022-08-24T00:56:41;2.07;;;1.70;;
4144;SDS011;2086;51.050;6.982;2022-08-24T00:59:10;2.73;;;2.10;;
4144;SDS011;2086;51.050;6.982;2022-08-24T01:01:36;4.30;;;2.37;;
4144;SDS011;2086;51.050;6.982;2022-08-24T01:04:02;3.70;;;1.73;;
4144;SDS011;2086;51.050;6.982;2022-08-24T01:06:27;1.97;;;1.87;;
4144;SDS011;2086;51.050;6.982;2022-08-24T01:08:53;2.17;;;2.07;;
4144;SDS011;2086;51.050;6.982;2022-08-24T01:11:18;2.23;;;2.03;;
4144;SDS011;2086;51.050;6.982;2022-08-24T01:13:46;2.50;;;2.30;;
4144;SDS011;2086;51.050;6.982;2022-08-24T01:16:12;3.30;;;2.30;;
4144;SDS011;2086;51.050;6.982;2022-08-24T01:18:38;2.43;;;2.33;;
4144;SDS011;2086;51.050;6.982;2022-08-24T01:23:43;2.83;;;2.30;;
4144;SDS011;2086;51.050;6.982;2022-08-24T01:26:10;1.93;;;1.83;;
4144;SDS011;2086;51.050;6.982;2022-08-24T01:28:36;1.90;;;1.80;;
4144;SDS011;2086;51.050;6.982;2022-08-24T01:31:04;1.93;;;1.83;;
4144;SDS011;2086;51.050;6.982;2022-08-24T01:33:30;2.20;;;2.10;;
4144;SDS011;2086;51.050;6.982;2022-08-24T01:36:15;6.10;;;2.10;;
4144;SDS011;2086;51.050;6.982;2022-08-24T01:38:43;2.77;;;2.43;;
4144;SDS011;2086;51.050;6.982;2022-08-24T01:41:08;10.10;;;2.17;;
4144;SDS011;2086;51.050;6.982;2022-08-24T01:43:34;2.60;;;2.27;;
4144;SDS011;2086;51.050;6.982;2022-08-24T01:45:59;2.10;;;1.70;;
4144;SDS011;2086;51.050;6.982;2022-08-24T01:48:24;8.67;;;2.03;;
4144;SDS011;2086;51.050;6.982;2022-08-24T01:50:49;2.13;;;2.03;;
4144;SDS011;2086;51.050;6.982;2022-08-24T01:53:15;2.60;;;2.30;;
4144;SDS011;2086;51.050;6.982;2022-08-24T01:55:40;1.60;;;1.50;;
4144;SDS011;2086;51.050;6.982;2022-08-24T01:58:06;4.93;;;2.17;;
4144;SDS011;2086;51.050;6.982;2022-08-24T02:00:31;2.20;;;2.10;;
4144;SDS011;2086;51.050;6.982;2022-08-24T02:02:57;2.93;;;2.60;;
4144;SDS011;2086;51.050;6.982;2022-08-24T02:05:23;2.67;;;2.47;;
4144;SDS011;2086;51.050;6.982;2022-08-24T02:07:48;2.27;;;2.10;;
4144;SDS011;2086;51.050;6.982;2022-08-24T02:10:14;2.57;;;2.37;;
4144;SDS011;2086;51.050;6.982;2022-08-24T02:12:40;3.20;;;3.00;;
4144;SDS011;2086;51.050;6.982;2022-08-24T02:15:06;2.87;;;2.77;;
4144;SDS011;2086;51.050;6.982;2022-08-24T02:17:32;2.80;;;2.60;;
4144;SDS011;2086;51.050;6.982;2022-08-24T02:19:58;2.90;;;2.80;;
4144;SDS011;2086;51.050;6.982;2022-08-24T02:22:24;3.03;;;2.57;;
4144;SDS011;2086;51.050;6.982;2022-08-24T02:24:49;4.73;;;3.73;;
4144;SDS011;2086;51.050;6.982;2022-08-24T02:27:14;3.70;;;3.47;;
4144;SDS011;2086;51.050;6.982;2022-08-24T02:29:40;4.60;;;3.07;;
4144;SDS011;2086;51.050;6.982;2022-08-24T02:32:05;3.27;;;3.07;;
4144;SDS011;2086;51.050;6.982;2022-08-24T02:34:31;3.07;;;2.87;;
4144;SDS011;2086;51.050;6.982;2022-08-24T02:36:56;3.23;;;3.13;;
4144;SDS011;2086;51.050;6.982;2022-08-24T02:39:21;2.73;;;2.50;;
4144;SDS011;2086;51.050;6.982;2022-08-24T02:41:47;2.73;;;2.53;;
4144;SDS011;2086;51.050;6.982;2022-08-24T02:44:12;3.03;;;2.40;;
4144;SDS011;2086;51.050;6.982;2022-08-24T02:46:37;3.30;;;2.13;;
4144;SDS011;2086;51.050;6.982;2022-08-24T02:49:03;2.97;;;2.67;;
4144;SDS011;2086;51.050;6.982;2022-08-24T02:51:29;3.20;;;2.87;;
4144;SDS011;2086;51.050;6.982;2022-08-24T02:53:56;2.40;;;2.20;;
4144;SDS011;2086;51.050;6.982;2022-08-24T02:56:21;3.63;;;2.90;;
4144;SDS011;2086;51.050;6.982;2022-08-24T02:58:47;3.93;;;3.63;;
4144;SDS011;2086;51.050;6.982;2022-08-24T03:01:12;2.13;;;2.03;;
4144;SDS011;2086;51.050;6.982;2022-08-24T03:03:37;2.30;;;2.10;;
4144;SDS011;2086;51.050;6.982;2022-08-24T03:06:03;3.10;;;2.90;;
4144;SDS011;2086;51.050;6.982;2022-08-24T03:08:29;3.43;;;2.67;;
4144;SDS011;2086;51.050;6.982;2022-08-24T03:10:54;3.43;;;2.57;;
4144;SDS011;2086;51.050;6.982;2022-08-24T03:13:19;3.33;;;2.13;;
4144;SDS011;2086;51.050;6.982;2022-08-24T03:15:44;3.10;;;2.90;;
4144;SDS011;2086;51.050;6.982;2022-08-24T03:18:13;3.50;;;3.20;;
4144;SDS011;2086;51.050;6.982;2022-08-24T03:20:38;2.93;;;2.73;;
4144;SDS011;2086;51.050;6.982;2022-08-24T03:23:03;2.83;;;2.67;;
4144;SDS011;2086;51.050;6.982;2022-08-24T03:25:29;2.77;;;2.57;;
4144;SDS011;2086;51.050;6.982;2022-08-24T03:27:54;2.13;;;2.03;;
4144;SDS011;2086;51.050;6.982;2022-08-24T03:30:21;3.20;;;3.00;;
4144;SDS011;2086;51.050;6.982;2022-08-24T03:32:46;3.90;;;2.63;;
4144;SDS011;2086;51.050;6.982;2022-08-24T03:35:12;5.20;;;3.37;;
4144;SDS011;2086;51.050;6.982;2022-08-24T03:37:38;4.17;;;2.83;;
4144;SDS011;2086;51.050;6.982;2022-08-24T03:40:04;2.50;;;2.40;;
4144;SDS011;2086;51.050;6.982;2022-08-24T03:42:30;2.37;;;2.27;;
4144;SDS011;2086;51.050;6.982;2022-08-24T03:44:55;2.90;;;2.73;;
4144;SDS011;2086;51.050;6.982;2022-08-24T03:47:20;5.57;;;3.20;;
4144;SDS011;2086;51.050;6.982;2022-08-24T03:49:46;2.97;;;2.80;;
4144;SDS011;2086;51.050;6.982;2022-08-24T03:52:12;6.63;;;2.50;;
4144;SDS011;2086;51.050;6.982;2022-08-24T03:54:37;3.77;;;3.57;;
4144;SDS011;2086;51.050;6.982;2022-08-24T03:57:02;2.83;;;2.63;;
4144;SDS011;2086;51.050;6.982;2022-08-24T03:59:27;4.30;;;2.30;;
4144;SDS011;2086;51.050;6.982;2022-08-24T04:01:53;3.17;;;2.67;;
4144;SDS011;2086;51.050;6.982;2022-08-24T04:04:20;14.23;;;3.63;;
4144;SDS011;2086;51.050;6.982;2022-08-24T04:06:45;2.80;;;2.33;;
4144;SDS011;2086;51.050;6.982;2022-08-24T04:09:11;4.20;;;2.60;;
4144;SDS011;2086;51.050;6.982;2022-08-24T04:11:36;5.20;;;3.00;;
4144;SDS011;2086;51.050;6.982;2022-08-24T04:14:01;2.37;;;2.23;;
4144;SDS011;2086;51.050;6.982;2022-08-24T04:16:27;4.53;;;2.80;;
4144;SDS011;2086;51.050;6.982;2022-08-24T04:18:53;3.33;;;3.13;;
4144;SDS011;2086;51.050;6.982;2022-08-24T04:21:21;2.30;;;2.20;;
4144;SDS011;2086;51.050;6.982;2022-08-24T04:23:47;4.70;;;2.70;;
4144;SDS011;2086;51.050;6.982;2022-08-24T04:26:13;3.30;;;3.10;;
4144;SDS011;2086;51.050;6.982;2022-08-24T04:28:38;5.83;;;2.93;;
4144;SDS011;2086;51.050;6.982;2022-08-24T04:31:04;3.53;;;3.17;;
4144;SDS011;2086;51.050;6.982;2022-08-24T04:33:30;6.90;;;3.13;;
4144;SDS011;2086;51.050;6.982;2022-08-24T04:35:55;4.30;;;3.23;;
4144;SDS011;2086;51.050;6.982;2022-08-24T04:38:21;3.20;;;2.90;;
4144;SDS011;2086;51.050;6.982;2022-08-24T04:40:46;3.70;;;3.07;;
4144;SDS011;2086;51.050;6.982;2022-08-24T04:43:12;3.00;;;2.80;;
4144;SDS011;2086;51.050;6.982;2022-08-24T04:45:39;3.10;;;2.80;;
4144;SDS011;2086;51.050;6.982;2022-08-24T04:48:05;2.77;;;2.67;;
4144;SDS011;2086;51.050;6.982;2022-08-24T04:50:34;2.70;;;2.50;;
4144;SDS011;2086;51.050;6.982;2022-08-24T04:53:00;3.67;;;3.47;;
4144;SDS011;2086;51.050;6.982;2022-08-24T04:55:25;3.93;;;2.10;;
4144;SDS011;2086;51.050;6.982;2022-08-24T04:57:50;2.93;;;2.67;;
4144;SDS011;2086;51.050;6.982;2022-08-24T05:00:16;3.00;;;2.90;;
4144;SDS011;2086;51.050;6.982;2022-08-24T05:02:41;4.90;;;3.40;;
4144;SDS011;2086;51.050;6.982;2022-08-24T05:05:07;8.93;;;3.80;;
4144;SDS011;2086;51.050;6.982;2022-08-24T05:07:33;5.10;;;3.00;;
4144;SDS011;2086;51.050;6.982;2022-08-24T05:09:58;7.30;;;3.83;;
4144;SDS011;2086;51.050;6.982;2022-08-24T05:12:24;4.70;;;2.83;;
4144;SDS011;2086;51.050;6.982;2022-08-24T05:14:49;4.50;;;2.80;;
4144;SDS011;2086;51.050;6.982;2022-08-24T05:17:14;4.97;;;3.17;;
4144;SDS011;2086;51.050;6.982;2022-08-24T05:19:39;2.50;;;2.10;;
4144;SDS011;2086;51.050;6.982;2022-08-24T05:22:05;3.00;;;2.53;;
4144;SDS011;2086;51.050;6.982;2022-08-24T05:24:30;4.30;;;3.10;;
4144;SDS011;2086;51.050;6.982;2022-08-24T05:26:55;3.03;;;2.83;;
4144;SDS011;2086;51.050;6.982;2022-08-24T05:29:20;5.17;;;3.93;;
4144;SDS011;2086;51.050;6.982;2022-08-24T05:31:47;6.57;;;2.90;;
4144;SDS011;2086;51.050;6.982;2022-08-24T05:34:12;3.73;;;3.43;;
4144;SDS011;2086;51.050;6.982;2022-08-24T05:36:38;3.03;;;2.83;;
4144;SDS011;2086;51.050;6.982;2022-08-24T05:39:06;3.00;;;2.70;;
4144;SDS011;2086;51.050;6.982;2022-08-24T05:41:32;4.33;;;3.23;;
4144;SDS011;2086;51.050;6.982;2022-08-24T05:43:58;3.63;;;2.70;;
4144;SDS011;2086;51.050;6.982;2022-08-24T05:46:23;6.90;;;2.60;;
4144;SDS011;2086;51.050;6.982;2022-08-24T05:48:49;5.23;;;3.63;;
4144;SDS011;2086;51.050;6.982;2022-08-24T05:51:14;7.90;;;3.13;;
4144;SDS011;2086;51.050;6.982;2022-08-24T05:53:39;7.43;;;2.90;;
4144;SDS011;2086;51.050;6.982;2022-08-24T05:56:06;2.83;;;2.70;;
4144;SDS011;2086;51.050;6.982;2022-08-24T05:58:31;4.23;;;2.50;;
4144;SDS011;2086;51.050;6.982;2022-08-24T06:00:57;3.00;;;2.23;;
4144;SDS011;2086;51.050;6.982;2022-08-24T06:03:23;2.97;;;2.87;;
4144;SDS011;2086;51.050;6.982;2022-08-24T06:05:49;3.23;;;2.60;;
4144;SDS011;2086;51.050;6.982;2022-08-24T06:08:14;7.20;;;1.87;;
4144;SDS011;2086;51.050;6.982;2022-08-24T06:10:40;3.47;;;2.77;;
4144;SDS011;2086;51.050;6.982;2022-08-24T06:13:06;6.03;;;2.30;;
4144;SDS011;2086;51.050;6.982;2022-08-24T06:15:32;2.03;;;1.90;;
4144;SDS011;2086;51.050;6.982;2022-08-24T06:17:57;2.40;;;2.30;;
4144;SDS011;2086;51.050;6.982;2022-08-24T06:20:23;2.80;;;2.27;;
4144;SDS011;2086;51.050;6.982;2022-08-24T06:22:48;2.57;;;2.47;;
4144;SDS011;2086;51.050;6.982;2022-08-24T06:25:13;4.17;;;1.93;;
4144;SDS011;2086;51.050;6.982;2022-08-24T06:27:57;1.83;;;1.73;;
4144;SDS011;2086;51.050;6.982;2022-08-24T06:30:22;3.13;;;2.90;;
4144;SDS011;2086;51.050;6.982;2022-08-24T06:32:48;14.17;;;2.33;;
4144;SDS011;2086;51.050;6.982;2022-08-24T06:35:13;2.93;;;1.87;;
4144;SDS011;2086;51.050;6.982;2022-08-24T06:37:38;2.10;;;2.00;;
4144;SDS011;2086;51.050;6.982;2022-08-24T06:40:03;2.50;;;1.70;;
4144;SDS011;2086;51.050;6.982;2022-08-24T06:42:29;1.57;;;1.47;;
4144;SDS011;2086;51.050;6.982;2022-08-24T06:44:55;1.77;;;1.67;;
4144;SDS011;2086;51.050;6.982;2022-08-24T06:47:20;2.13;;;2.03;;
4144;SDS011;2086;51.050;6.982;2022-08-24T06:49:46;1.50;;;1.40;;
4144;SDS011;2086;51.050;6.982;2022-08-24T06:52:11;3.80;;;1.53;;
4144;SDS011;2086;51.050;6.982;2022-08-24T06:54:37;1.80;;;1.70;;
4144;SDS011;2086;51.050;6.982;2022-08-24T06:57:02;1.60;;;1.50;;
4144;SDS011;2086;51.050;6.982;2022-08-24T06:59:28;1.40;;;1.10;;
4144;SDS011;2086;51.050;6.982;2022-08-24T07:01:53;3.83;;;2.13;;
4144;SDS011;2086;51.050;6.982;2022-08-24T07:04:20;1.73;;;1.63;;
4144;SDS011;2086;51.050;6.982;2022-08-24T07:06:45;3.40;;;1.47;;
4144;SDS011;2086;51.050;6.982;2022-08-24T07:09:10;2.77;;;2.67;;
4144;SDS011;2086;51.050;6.982;2022-08-24T07:11:36;2.40;;;1.57;;
4144;SDS011;2086;51.050;6.982;2022-08-24T07:14:01;1.80;;;1.70;;
4144;SDS011;2086;51.050;6.982;2022-08-24T07:16:26;1.57;;;1.57;;
4144;SDS011;2086;51.050;6.982;2022-08-24T07:18:52;4.30;;;1.30;;
4144;SDS011;2086;51.050;6.982;2022-08-24T07:21:17;1.73;;;1.50;;
4144;SDS011;2086;51.050;6.982;2022-08-24T07:23:43;2.20;;;2.00;;
4144;SDS011;2086;51.050;6.982;2022-08-24T07:26:10;1.87;;;1.77;;
4144;SDS011;2086;51.050;6.982;2022-08-24T07:28:38;2.80;;;1.40;;
4144;SDS011;2086;51.050;6.982;2022-08-24T07:31:04;1.90;;;1.80;;
4144;SDS011;2086;51.050;6.982;2022-08-24T07:33:29;2.27;;;2.17;;
4144;SDS011;2086;51.050;6.982;2022-08-24T07:35:55;1.63;;;1.53;;
4144;SDS011;2086;51.050;6.982;2022-08-24T07:38:20;2.50;;;2.30;;
4144;SDS011;2086;51.050;6.982;2022-08-24T07:40:46;2.17;;;1.93;;
4144;SDS011;2086;51.050;6.982;2022-08-24T07:43:14;1.80;;;1.70;;
4144;SDS011;2086;51.050;6.982;2022-08-24T07:45:40;1.90;;;1.80;;
4144;SDS011;2086;51.050;6.982;2022-08-24T07:48:06;1.73;;;1.53;;
4144;SDS011;2086;51.050;6.982;2022-08-24T07:50:31;3.70;;;1.80;;
4144;SDS011;2086;51.050;6.982;2022-08-24T07:52:56;1.97;;;1.87;;
4144;SDS011;2086;51.050;6.982;2022-08-24T07:55:22;2.00;;;1.90;;
4144;SDS011;2086;51.050;6.982;2022-08-24T07:57:47;1.40;;;1.30;;
4144;SDS011;2086;51.050;6.982;2022-08-24T08:00:13;1.70;;;1.60;;
4144;SDS011;2086;51.050;6.982;2022-08-24T08:02:39;1.50;;;1.43;;
4144;SDS011;2086;51.050;6.982;2022-08-24T08:05:07;11.40;;;2.20;;
4144;SDS011;2086;51.050;6.982;2022-08-24T08:07:32;2.00;;;1.70;;
4144;SDS011;2086;51.050;6.982;2022-08-24T08:09:57;2.70;;;1.50;;
4144;SDS011;2086;51.050;6.982;2022-08-24T08:12:23;1.73;;;1.30;;
4144;SDS011;2086;51.050;6.982;2022-08-24T08:14:48;1.80;;;1.70;;
4144;SDS011;2086;51.050;6.982;2022-08-24T08:17:13;1.90;;;1.40;;
4144;SDS011;2086;51.050;6.982;2022-08-24T08:19:39;1.80;;;1.70;;
4144;SDS011;2086;51.050;6.982;2022-08-24T08:22:05;1.43;;;1.33;;
4144;SDS011;2086;51.050;6.982;2022-08-24T08:24:49;1.60;;;1.50;;
4144;SDS011;2086;51.050;6.982;2022-08-24T08:27:14;1.93;;;1.30;;
4144;SDS011;2086;51.050;6.982;2022-08-24T08:29:40;1.27;;;1.27;;
4144;SDS011;2086;51.050;6.982;2022-08-24T08:32:06;1.80;;;1.80;;
4144;SDS011;2086;51.050;6.982;2022-08-24T08:34:32;1.33;;;1.30;;
4144;SDS011;2086;51.050;6.982;2022-08-24T08:36:58;1.60;;;1.50;;
4144;SDS011;2086;51.050;6.982;2022-08-24T08:39:23;1.93;;;1.30;;
4144;SDS011;2086;51.050;6.982;2022-08-24T08:44:30;1.33;;;1.33;;
4144;SDS011;2086;51.050;6.982;2022-08-24T08:54:47;4.67;;;1.50;;
4144;SDS011;2086;51.050;6.982;2022-08-24T09:15:33;1.20;;;1.20;;
4144;SDS011;2086;51.050;6.982;2022-08-24T09:18:08;1.37;;;1.33;;
4144;SDS011;2086;51.050;6.982;2022-08-24T09:33:25;1.20;;;1.20;;
4144;SDS011;2086;51.050;6.982;2022-08-24T09:35:59;1.10;;;1.10;;
4144;SDS011;2086;51.050;6.982;2022-08-24T09:51:51;0.88;;;0.70;;
4144;SDS011;2086;51.050;6.982;2022-08-24T10:01:45;0.90;;;0.90;;
4144;SDS011;2086;51.050;6.982;2022-08-24T10:04:29;1.40;;;1.40;;
4144;SDS011;2086;51.050;6.982;2022-08-24T10:07:05;0.50;;;0.50;;
4144;SDS011;2086;51.050;6.982;2022-08-24T10:09:38;0.80;;;0.80;;
4144;SDS011;2086;51.050;6.982;2022-08-24T10:17:24;1.20;;;1.00;;
4144;SDS011;2086;51.050;6.982;2022-08-24T10:27:58;1.00;;;0.82;;
4144;SDS011;2086;51.050;6.982;2022-08-24T10:35:37;0.80;;;0.80;;
4144;SDS011;2086;51.050;6.982;2022-08-24T10:38:13;1.08;;;1.08;;
4144;SDS011;2086;51.050;6.982;2022-08-24T10:48:45;0.60;;;0.60;;
4144;SDS011;2086;51.050;6.982;2022-08-24T10:53:49;0.90;;;0.88;;
4144;SDS011;2086;51.050;6.982;2022-08-24T10:56:16;1.05;;;0.85;;
4144;SDS011;2086;51.050;6.982;2022-08-24T11:03:49;1.67;;;1.40;;
4144;SDS011;2086;51.050;6.982;2022-08-24T11:06:15;1.95;;;0.70;;
4144;SDS011;2086;51.050;6.982;2022-08-24T11:08:49;0.68;;;0.60;;
4144;SDS011;2086;51.050;6.982;2022-08-24T11:11:21;3.45;;;0.70;;
4144;SDS011;2086;51.050;6.982;2022-08-24T11:16:22;0.50;;;0.50;;
4144;SDS011;2086;51.050;6.982;2022-08-24T11:18:54;0.50;;;0.50;;
4144;SDS011;2086;51.050;6.982;2022-08-24T11:21:31;0.90;;;0.90;;
4144;SDS011;2086;51.050;6.982;2022-08-24T11:26:53;1.02;;;0.60;;
4144;SDS011;2086;51.050;6.982;2022-08-24T11:29:19;0.50;;;0.50;;
4144;SDS011;2086;51.050;6.982;2022-08-24T11:31:46;0.47;;;0.47;;
4144;SDS011;2086;51.050;6.982;2022-08-24T11:34:14;1.20;;;0.60;;
4144;SDS011;2086;51.050;6.982;2022-08-24T11:36:40;0.73;;;0.50;;
4144;SDS011;2086;51.050;6.982;2022-08-24T11:39:10;2.15;;;0.60;;
4144;SDS011;2086;51.050;6.982;2022-08-24T11:41:47;0.40;;;0.40;;
4144;SDS011;2086;51.050;6.982;2022-08-24T11:55:14;0.60;;;0.60;;
4144;SDS011;2086;51.050;6.982;2022-08-24T11:57:58;1.27;;;0.70;;
4144;SDS011;2086;51.050;6.982;2022-08-24T12:00:27;1.35;;;0.50;;
4144;SDS011;2086;51.050;6.982;2022-08-24T12:03:21;0.63;;;0.63;;
4144;SDS011;2086;51.050;6.982;2022-08-24T12:13:27;0.70;;;0.40;;
4144;SDS011;2086;51.050;6.982;2022-08-24T12:15:59;0.47;;;0.47;;
4144;SDS011;2086;51.050;6.982;2022-08-24T12:18:36;0.50;;;0.43;;
4144;SDS011;2086;51.050;6.982;2022-08-24T12:21:07;0.50;;;0.50;;
4144;SDS011;2086;51.050;6.982;2022-08-24T12:23:36;1.77;;;0.50;;
4144;SDS011;2086;51.050;6.982;2022-08-24T12:26:13;0.40;;;0.40;;
4144;SDS011;2086;51.050;6.982;2022-08-24T12:28:43;0.52;;;0.52;;
4144;SDS011;2086;51.050;6.982;2022-08-24T12:31:33;0.93;;;0.50;;
4144;SDS011;2086;51.050;6.982;2022-08-24T12:33:55;0.73;;;0.40;;
4144;SDS011;2086;51.050;6.982;2022-08-24T12:36:24;0.50;;;0.50;;
4144;SDS011;2086;51.050;6.982;2022-08-24T12:38:57;0.50;;;0.50;;
4144;SDS011;2086;51.050;6.982;2022-08-24T12:41:30;0.98;;;0.55;;
4144;SDS011;2086;51.050;6.982;2022-08-24T12:44:04;0.50;;;0.50;;
4144;SDS011;2086;51.050;6.982;2022-08-24T12:46:32;0.50;;;0.50;;
4144;SDS011;2086;51.050;6.982;2022-08-24T12:49:03;0.55;;;0.55;;
4144;SDS011;2086;51.050;6.982;2022-08-24T12:51:36;0.98;;;0.50;;
4144;SDS011;2086;51.050;6.982;2022-08-24T12:59:03;0.88;;;0.70;;
4144;SDS011;2086;51.050;6.982;2022-08-24T13:01:32;0.55;;;0.55;;
4144;SDS011;2086;51.050;6.982;2022-08-24T13:09:06;0.52;;;0.52;;
4144;SDS011;2086;51.050;6.982;2022-08-24T13:11:33;0.50;;;0.50;;
4144;SDS011;2086;51.050;6.982;2022-08-24T13:21:45;0.70;;;0.47;;
4144;SDS011;2086;51.050;6.982;2022-08-24T13:27:44;0.77;;;0.50;;
4144;SDS011;2086;51.050;6.982;2022-08-24T13:32:21;0.60;;;0.60;;
4144;SDS011;2086;51.050;6.982;2022-08-24T13:34:51;2.40;;;0.50;;
4144;SDS011;2086;51.050;6.982;2022-08-24T13:37:21;1.05;;;0.60;;
4144;SDS011;2086;51.050;6.982;2022-08-24T13:40:01;0.50;;;0.50;;
4144;SDS011;2086;51.050;6.982;2022-08-24T13:58:09;1.77;;;0.60;;
4144;SDS011;2086;51.050;6.982;2022-08-24T14:03:11;0.50;;;0.50;;
4144;SDS011;2086;51.050;6.982;2022-08-24T14:18:14;1.00;;;0.60;;
4144;SDS011;2086;51.050;6.982;2022-08-24T14:23:08;0.93;;;0.70;;
4144;SDS011;2086;51.050;6.982;2022-08-24T14:25:37;1.25;;;0.70;;
4144;SDS011;2086;51.050;6.982;2022-08-24T14:30:43;0.93;;;0.90;;
4144;SDS011;2086;51.050;6.982;2022-08-24T14:38:36;0.65;;;0.65;;
4144;SDS011;2086;51.050;6.982;2022-08-24T14:53:47;0.60;;;0.60;;
4144;SDS011;2086;51.050;6.982;2022-08-24T14:58:59;1.25;;;0.63;;
4144;SDS011;2086;51.050;6.982;2022-08-24T15:04:38;0.55;;;0.55;;
4144;SDS011;2086;51.050;6.982;2022-08-24T15:09:36;0.52;;;0.50;;
4144;SDS011;2086;51.050;6.982;2022-08-24T15:14:47;0.75;;;0.52;;
4144;SDS011;2086;51.050;6.982;2022-08-24T15:17:16;5.38;;;1.00;;
4144;SDS011;2086;51.050;6.982;2022-08-24T15:20:00;0.80;;;0.70;;
4144;SDS011;2086;51.050;6.982;2022-08-24T15:25:03;0.73;;;0.73;;
4144;SDS011;2086;51.050;6.982;2022-08-24T15:32:45;0.67;;;0.67;;
4144;SDS011;2086;51.050;6.982;2022-08-24T15:37:50;0.80;;;0.70;;
4144;SDS011;2086;51.050;6.982;2022-08-24T15:40:17;1.33;;;0.90;;
4144;SDS011;2086;51.050;6.982;2022-08-24T15:42:45;0.70;;;0.70;;
4144;SDS011;2086;51.050;6.982;2022-08-24T15:45:11;2.83;;;0.70;;
4144;SDS011;2086;51.050;6.982;2022-08-24T15:47:37;0.87;;;0.87;;
4144;SDS011;2086;51.050;6.982;2022-08-24T15:50:07;0.63;;;0.63;;
4144;SDS011;2086;51.050;6.982;2022-08-24T15:55:15;2.13;;;0.60;;
4144;SDS011;2086;51.050;6.982;2022-08-24T15:57:50;0.87;;;0.73;;
4144;SDS011;2086;51.050;6.982;2022-08-24T16:00:16;0.77;;;0.70;;
4144;SDS011;2086;51.050;6.982;2022-08-24T16:05:54;1.23;;;1.10;;
4144;SDS011;2086;51.050;6.982;2022-08-24T16:08:20;0.80;;;0.80;;
4144;SDS011;2086;51.050;6.982;2022-08-24T16:10:49;0.93;;;0.93;;
4144;SDS011;2086;51.050;6.982;2022-08-24T16:15:48;0.80;;;0.80;;
4144;SDS011;2086;51.050;6.982;2022-08-24T16:18:14;1.43;;;0.73;;
4144;SDS011;2086;51.050;6.982;2022-08-24T16:20:40;0.50;;;0.50;;
4144;SDS011;2086;51.050;6.982;2022-08-24T16:23:07;0.83;;;0.83;;
4144;SDS011;2086;51.050;6.982;2022-08-24T16:25:35;0.80;;;0.80;;
4144;SDS011;2086;51.050;6.982;2022-08-24T16:30:47;0.80;;;0.80;;
4144;SDS011;2086;51.050;6.982;2022-08-24T16:35:54;1.23;;;0.70;;
4144;SDS011;2086;51.050;6.982;2022-08-24T16:38:19;0.80;;;0.80;;
4144;SDS011;2086;51.050;6.982;2022-08-24T16:40:45;1.17;;;1.17;;
4144;SDS011;2086;51.050;6.982;2022-08-24T16:43:10;1.43;;;0.87;;
4144;SDS011;2086;51.050;6.982;2022-08-24T16:45:35;0.73;;;0.73;;
4144;SDS011;2086;51.050;6.982;2022-08-24T16:48:00;0.87;;;0.70;;
4144;SDS011;2086;51.050;6.982;2022-08-24T16:50:26;3.30;;;0.83;;
4144;SDS011;2086;51.050;6.982;2022-08-24T16:52:51;0.93;;;0.93;;
4144;SDS011;2086;51.050;6.982;2022-08-24T16:55:16;1.10;;;1.00;;
4144;SDS011;2086;51.050;6.982;2022-08-24T16:57:41;0.70;;;0.70;;
4144;SDS011;2086;51.050;6.982;2022-08-24T17:00:08;1.47;;;1.47;;
4144;SDS011;2086;51.050;6.982;2022-08-24T17:02:34;0.83;;;0.83;;
4144;SDS011;2086;51.050;6.982;2022-08-24T17:04:59;0.87;;;0.87;;
4144;SDS011;2086;51.050;6.982;2022-08-24T17:07:25;1.90;;;1.23;;
4144;SDS011;2086;51.050;6.982;2022-08-24T17:09:51;0.80;;;0.80;;
4144;SDS011;2086;51.050;6.982;2022-08-24T17:12:17;1.23;;;0.97;;
4144;SDS011;2086;51.050;6.982;2022-08-24T17:14:42;1.03;;;0.90;;
4144;SDS011;2086;51.050;6.982;2022-08-24T17:17:09;0.83;;;0.83;;
4144;SDS011;2086;51.050;6.982;2022-08-24T17:19:35;0.80;;;0.80;;
4144;SDS011;2086;51.050;6.982;2022-08-24T17:22:01;0.93;;;0.93;;
4144;SDS011;2086;51.050;6.982;2022-08-24T17:24:27;2.37;;;1.30;;
4144;SDS011;2086;51.050;6.982;2022-08-24T17:26:53;1.00;;;0.67;;
4144;SDS011;2086;51.050;6.982;2022-08-24T17:29:18;1.63;;;0.87;;
4144;SDS011;2086;51.050;6.982;2022-08-24T17:31:44;3.47;;;0.87;;
4144;SDS011;2086;51.050;6.982;2022-08-24T17:34:10;1.30;;;1.20;;
4144;SDS011;2086;51.050;6.982;2022-08-24T17:36:35;1.00;;;1.00;;
4144;SDS011;2086;51.050;6.982;2022-08-24T17:39:02;0.73;;;0.73;;
4144;SDS011;2086;51.050;6.982;2022-08-24T17:41:28;1.13;;;0.90;;
4144;SDS011;2086;51.050;6.982;2022-08-24T17:43:53;1.10;;;0.87;;
4144;SDS011;2086;51.050;6.982;2022-08-24T17:46:19;0.80;;;0.80;;
4144;SDS011;2086;51.050;6.982;2022-08-24T17:48:44;2.43;;;1.20;;
4144;SDS011;2086;51.050;6.982;2022-08-24T17:51:10;3.73;;;1.03;;
4144;SDS011;2086;51.050;6.982;2022-08-24T17:53:35;1.00;;;1.00;;
4144;SDS011;2086;51.050;6.982;2022-08-24T17:56:01;1.83;;;1.73;;
4144;SDS011;2086;51.050;6.982;2022-08-24T17:58:27;1.87;;;1.77;;
4144;SDS011;2086;51.050;6.982;2022-08-24T18:00:52;1.60;;;1.50;;
4144;SDS011;2086;51.050;6.982;2022-08-24T18:03:17;1.00;;;1.00;;
4144;SDS011;2086;51.050;6.982;2022-08-24T18:05:43;1.63;;;1.20;;
4144;SDS011;2086;51.050;6.982;2022-08-24T18:08:08;1.30;;;1.20;;
4144;SDS011;2086;51.050;6.982;2022-08-24T18:10:33;1.13;;;1.10;;
4144;SDS011;2086;51.050;6.982;2022-08-24T18:12:59;1.57;;;1.07;;
4144;SDS011;2086;51.050;6.982;2022-08-24T18:15:25;1.87;;;0.97;;
4144;SDS011;2086;51.050;6.982;2022-08-24T18:17:52;2.70;;;1.20;;
4144;SDS011;2086;51.050;6.982;2022-08-24T18:20:20;1.93;;;1.50;;
4144;SDS011;2086;51.050;6.982;2022-08-24T18:22:45;1.60;;;1.47;;
4144;SDS011;2086;51.050;6.982;2022-08-24T18:25:13;1.40;;;1.30;;
4144;SDS011;2086;51.050;6.982;2022-08-24T18:27:38;1.70;;;1.00;;
4144;SDS011;2086;51.050;6.982;2022-08-24T18:30:05;1.00;;;1.00;;
4144;SDS011;2086;51.050;6.982;2022-08-24T18:32:30;2.40;;;1.17;;
4144;SDS011;2086;51.050;6.982;2022-08-24T18:34:56;1.20;;;1.20;;
4144;SDS011;2086;51.050;6.982;2022-08-24T18:37:21;1.87;;;1.77;;
4144;SDS011;2086;51.050;6.982;2022-08-24T18:39:48;0.97;;;0.97;;
4144;SDS011;2086;51.050;6.982;2022-08-24T18:42:13;1.80;;;1.70;;
4144;SDS011;2086;51.050;6.982;2022-08-24T18:44:39;2.13;;;1.93;;
4144;SDS011;2086;51.050;6.982;2022-08-24T18:47:04;2.70;;;1.40;;
4144;SDS011;2086;51.050;6.982;2022-08-24T18:49:31;4.13;;;1.97;;
4144;SDS011;2086;51.050;6.982;2022-08-24T18:51:56;6.00;;;1.53;;
4144;SDS011;2086;51.050;6.982;2022-08-24T18:54:23;1.80;;;1.70;;
4144;SDS011;2086;51.050;6.982;2022-08-24T18:56:49;2.20;;;1.50;;
4144;SDS011;2086;51.050;6.982;2022-08-24T18:59:15;5.27;;;1.90;;
4144;SDS011;2086;51.050;6.982;2022-08-24T19:01:41;2.07;;;1.97;;
4144;SDS011;2086;51.050;6.982;2022-08-24T19:04:26;1.80;;;1.70;;
4144;SDS011;2086;51.050;6.982;2022-08-24T19:06:51;1.50;;;1.40;;
4144;SDS011;2086;51.050;6.982;2022-08-24T19:09:17;1.70;;;1.60;;
4144;SDS011;2086;51.050;6.982;2022-08-24T19:11:42;1.93;;;1.63;;